首页
METAR-TAF:

METAR-TAF

机场 :

Fairchild Air Force Base

斯波坎, 华盛顿, 美国

纬度: 47-37N, 经度: 117-39W, 海拔: 750米

当前天气观测

该预报发布于10分钟前的04:55 UTC
风速10节,风向西南
温度 9°C
湿度 46%
气压 1010 hPa
能見度: 16.1公里
天空无云

METAR: KSKA 260455Z 23010KT 10SM CLR 09/M02 A2982 RMK AO2A SLP097 T00941016 $

时间: 22:05 (05:05 UTC)

预报

该预报发布于2小时和5分钟前的03:00 UTC
预报有效从26日的 03点(UTC)到 27日的 09点(UTC)
风速12节,风向南转西南
能见度10公里或以上
多云层高于7000英尺
成为
从 26日的 13点(UTC)到 26日的 14点(UTC)
风速7节,风向南转西南
能見度: 2701
散云层高于4000英尺
多云层高于6000英尺

TAF: KSKA 260300Z 2603/2709 21012KT 9999 BKN070 620709 QNH2979INS BECMG 2613/2614 21012KT 9999 SCT040 BKN060 620606 QNH2998INS WND 20007KT AFT 2701 TX17/2623Z TN02/2612Z

超过4000个机场的气象观测和天气预报(METAR&TAF报告)。

可查询的气象台以黄色和红色小点在地图上表示。

将鼠标移到小点上方,可查看气象台名称。

然后点击查看天气观测和预报。

如需切换地图:点击带黑十字的绿色按钮放大地图;点击带横线的绿色按钮缩小地图;或者点击绿色箭头查看邻近地区的地图。


METAR-TAF: